Bitflower — SBJE — position and weather

sailwx.info

Track history (hours):
 
Tides and Currents Weather Stations Pressure Air Temp Water Temp Dewpoint Dewpoint Depression Visibility Wind Speed Wind Dir Waves Ship Positions

Bitflower

Last reported at 2015-May-29 21:32 UTC. Time now 2015-May-29 22:27 UTC.
Position N 58°43' W 004°45'.

Length 116 m; draft 4.8 m.

Type: Ship. MMSI: 266009000.

Date/timePositionNaut miles runAvg speedWind from/ knotsBaromVisibWave heightAir tempDewpointWater temp
2015-May-29 21:32N 58°43' W 004°45'2711.6
2015-May-29 19:13N 58°25' W 005°24'913.4
2015-May-29 18:33N 58°18' W 005°33'1313.2
2015-May-29 17:33N 58°06' W 005°46'1413.2
2015-May-29 16:29N 57°54' W 005°60'13010.8
2015-May-29 04:29N 55°48' W 006°53'8 9.0
2015-May-29 03:33N 55°41' W 006°45'9 8.8
2015-May-29 02:32N 55°35' W 006°34'9 9.3
2015-May-29 01:33N 55°29' W 006°21'1110.6
2015-May-29 00:33N 55°25' W 006°04'1312.5
2015-May-28 23:33N 55°15' W 005°51'1313.0
2015-May-28 22:32N 55°03' W 005°40'1212.0
2015-May-28 21:33N 54°51' W 005°37'1111.2
2015-May-28 20:33N 54°42' W 005°47'4 0.5
2015-May-28 13:29N 54°39' W 005°51'8 8.5
2015-May-28 12:33N 54°43' W 005°39'10 9.7
2015-May-28 11:33N 54°38' W 005°24'1313.4
2015-May-28 10:33N 54°25' W 005°18'279 5.8
2015-May-26 10:14N 49°57' W 003°17'14413.1
2015-May-25 23:14N 50°34' E 000°20'913.7
2015-May-25 22:32N 50°37' E 000°34'1413.9
2015-May-25 21:34N 50°44' E 000°53'2613.2
2015-May-25 19:34N 51°00' E 001°25'1212.2
2015-May-25 18:34N 51°09' E 001°39'1211.6
2015-May-25 17:33N 51°18' E 001°52'1211.8
2015-May-25 16:34N 51°28' E 002°01'1412.7
2015-May-25 15:26N 51°38' E 002°17'5912.2
2015-May-25 10:33N 52°03' E 003°44'1211.6
2015-May-25 09:34N 51°60' E 004°02'1211.4
2015-May-25 08:33N 51°54' E 004°18'1 1.0
2015-May-25 07:29N 51°53' E 004°16'0 0.0
2015-May-25 06:29N 51°53' E 004°16'0 0.0
2015-May-25 05:29N 51°53' E 004°16'0 0.0
2015-May-25 04:29N 51°53' E 004°16'0 0.0
2015-May-25 03:29N 51°53' E 004°16'0 0.0
2015-May-25 02:29N 51°53' E 004°16'0 0.0
2015-May-25 01:29N 51°53' E 004°16'0 0.0
2015-May-25 00:23N 51°53' E 004°16'0 0.0
2015-May-24 23:29N 51°53' E 004°16'0 0.0
2015-May-24 22:29N 51°53' E 004°16'0 0.0
2015-May-24 21:29N 51°53' E 004°16'0 0.0
2015-May-24 20:29N 51°53' E 004°16'0 0.0
2015-May-24 19:29N 51°53' E 004°16'0 0.0
2015-May-24 18:29N 51°53' E 004°16'0 0.0
2015-May-24 17:29N 51°53' E 004°16'0 0.0
2015-May-24 16:29N 51°53' E 004°16'0 0.0
2015-May-24 15:29N 51°53' E 004°16'0 0.0
2015-May-24 14:29N 51°53' E 004°16'0 0.0
2015-May-24 13:29N 51°53' E 004°16'0 0.0
2015-May-24 12:29N 51°53' E 004°16'0 0.0
2015-May-24 11:29N 51°53' E 004°16'1 1.3
2015-May-24 10:33N 51°54' E 004°15'1110.6
2015-May-24 09:33N 51°60' E 004°00'1412.8
2015-May-24 08:28N 51°58' E 003°38'2513.1
2015-May-24 06:33N 51°50' E 002°59'1712.9
2015-May-24 05:16N 51°44' E 002°34'1215.1
2015-May-24 04:29N 51°35' E 002°21'1414.8
2015-May-24 03:31N 51°24' E 002°08'1313.6
2015-May-24 02:33N 51°12' E 001°58'1414.5
2015-May-24 01:33N 51°03' E 001°41'1413.6
2015-May-24 00:33N 50°52' E 001°28'1312.5
2015-May-23 23:33N 50°40' E 001°20'29712.4
2015-May-22 23:33N 48°13' W 005°17'1212.1
2015-May-22 22:33N 48°02' W 005°09'1111.4
2015-May-22 21:33N 47°53' W 004°58'1212.1
2015-May-22 20:33N 47°45' W 004°46'131 8.2
2015-May-22 04:31N 47°12' W 001°38'0 0.0
2015-May-21 22:22N 47°12' W 001°38'0 0.0
2015-May-21 21:31N 47°12' W 001°38'217 5.0
2015-May-20 02:29N 50°34' E 000°19'1212.6
2015-May-20 01:33N 50°39' E 000°36'1211.7
2015-May-20 00:33N 50°46' E 000°51'2211.0
2015-May-19 22:32N 50°60' E 001°19'1414.0
2015-May-19 21:34N 51°09' E 001°35'  
Track history (hours):
 
Tides and Currents Weather Stations Pressure Air Temp Water Temp Dewpoint Dewpoint Depression Visibility Wind Speed Wind Dir Waves Ship Positions

Bitflower

Last reported at 2015-May-29 21:32 UTC. Time now 2015-May-29 22:27 UTC.
Position N 58°43' W 004°45'.

Length 116 m; draft 4.8 m.

Type: Ship. MMSI: 266009000.

Date/timePositionNaut miles runAvg speedWind from/ knotsBaromVisibWave heightAir tempDewpointWater temp
2015-May-29 21:32N 58°43' W 004°45'2711.6
2015-May-29 19:13N 58°25' W 005°24'913.4
2015-May-29 18:33N 58°18' W 005°33'1313.2
2015-May-29 17:33N 58°06' W 005°46'1413.2
2015-May-29 16:29N 57°54' W 005°60'13010.8
2015-May-29 04:29N 55°48' W 006°53'8 9.0
2015-May-29 03:33N 55°41' W 006°45'9 8.8
2015-May-29 02:32N 55°35' W 006°34'9 9.3
2015-May-29 01:33N 55°29' W 006°21'1110.6
2015-May-29 00:33N 55°25' W 006°04'1312.5
2015-May-28 23:33N 55°15' W 005°51'1313.0
2015-May-28 22:32N 55°03' W 005°40'1212.0
2015-May-28 21:33N 54°51' W 005°37'1111.2
2015-May-28 20:33N 54°42' W 005°47'4 0.5
2015-May-28 13:29N 54°39' W 005°51'8 8.5
2015-May-28 12:33N 54°43' W 005°39'10 9.7
2015-May-28 11:33N 54°38' W 005°24'1313.4
2015-May-28 10:33N 54°25' W 005°18'279 5.8
2015-May-26 10:14N 49°57' W 003°17'14413.1
2015-May-25 23:14N 50°34' E 000°20'913.7
2015-May-25 22:32N 50°37' E 000°34'1413.9
2015-May-25 21:34N 50°44' E 000°53'2613.2
2015-May-25 19:34N 51°00' E 001°25'1212.2
2015-May-25 18:34N 51°09' E 001°39'1211.6
2015-May-25 17:33N 51°18' E 001°52'1211.8
2015-May-25 16:34N 51°28' E 002°01'1412.7
2015-May-25 15:26N 51°38' E 002°17'5912.2
2015-May-25 10:33N 52°03' E 003°44'1211.6
2015-May-25 09:34N 51°60' E 004°02'1211.4
2015-May-25 08:33N 51°54' E 004°18'1 1.0
2015-May-25 07:29N 51°53' E 004°16'0 0.0
2015-May-25 06:29N 51°53' E 004°16'0 0.0
2015-May-25 05:29N 51°53' E 004°16'0 0.0
2015-May-25 04:29N 51°53' E 004°16'0 0.0
2015-May-25 03:29N 51°53' E 004°16'0 0.0
2015-May-25 02:29N 51°53' E 004°16'0 0.0
2015-May-25 01:29N 51°53' E 004°16'0 0.0
2015-May-25 00:23N 51°53' E 004°16'0 0.0
2015-May-24 23:29N 51°53' E 004°16'0 0.0
2015-May-24 22:29N 51°53' E 004°16'0 0.0
2015-May-24 21:29N 51°53' E 004°16'0 0.0
2015-May-24 20:29N 51°53' E 004°16'0 0.0
2015-May-24 19:29N 51°53' E 004°16'0 0.0
2015-May-24 18:29N 51°53' E 004°16'0 0.0
2015-May-24 17:29N 51°53' E 004°16'0 0.0
2015-May-24 16:29N 51°53' E 004°16'0 0.0
2015-May-24 15:29N 51°53' E 004°16'0 0.0
2015-May-24 14:29N 51°53' E 004°16'0 0.0
2015-May-24 13:29N 51°53' E 004°16'0 0.0
2015-May-24 12:29N 51°53' E 004°16'0 0.0
2015-May-24 11:29N 51°53' E 004°16'1 1.3
2015-May-24 10:33N 51°54' E 004°15'1110.6
2015-May-24 09:33N 51°60' E 004°00'1412.8
2015-May-24 08:28N 51°58' E 003°38'2513.1
2015-May-24 06:33N 51°50' E 002°59'1712.9
2015-May-24 05:16N 51°44' E 002°34'1215.1
2015-May-24 04:29N 51°35' E 002°21'1414.8
2015-May-24 03:31N 51°24' E 002°08'1313.6
2015-May-24 02:33N 51°12' E 001°58'1414.5
2015-May-24 01:33N 51°03' E 001°41'1413.6
2015-May-24 00:33N 50°52' E 001°28'1312.5
2015-May-23 23:33N 50°40' E 001°20'29712.4
2015-May-22 23:33N 48°13' W 005°17'1212.1
2015-May-22 22:33N 48°02' W 005°09'1111.4
2015-May-22 21:33N 47°53' W 004°58'1212.1
2015-May-22 20:33N 47°45' W 004°46'131 8.2
2015-May-22 04:31N 47°12' W 001°38'0 0.0
2015-May-21 22:22N 47°12' W 001°38'0 0.0
2015-May-21 21:31N 47°12' W 001°38'217 5.0
2015-May-20 02:29N 50°34' E 000°19'1212.6
2015-May-20 01:33N 50°39' E 000°36'1211.7
2015-May-20 00:33N 50°46' E 000°51'2211.0
2015-May-19 22:32N 50°60' E 001°19'1414.0
2015-May-19 21:34N 51°09' E 001°35'  

Dump ship's entire track history